createdAt,value
2017-04-27T06:14:10.854Z,4.90
2017-04-27T06:16:37.019Z,5.10
2017-04-27T06:19:03.362Z,5.20
2017-04-27T06:21:29.657Z,5.20
2017-04-27T06:23:56.561Z,5.50
2017-04-27T06:26:22.727Z,5.40
2017-04-27T06:28:48.864Z,5.60
2017-04-27T06:31:16.425Z,6.30
2017-04-27T06:33:43.293Z,6.40
2017-04-27T06:36:09.430Z,6.40
2017-04-27T06:38:36.393Z,6.50
2017-04-27T06:41:02.643Z,6.50
2017-04-27T06:43:28.862Z,6.60
2017-04-27T06:45:55.277Z,6.70
2017-04-27T06:48:22.037Z,7.00
2017-04-27T06:50:48.167Z,7.10
2017-04-27T06:53:14.316Z,7.30
2017-04-27T06:55:41.222Z,7.40
2017-04-27T06:58:07.503Z,7.30
2017-04-27T07:00:35.203Z,7.30
2017-04-27T07:03:06.143Z,7.30
2017-04-27T07:05:34.134Z,7.30
2017-04-27T07:08:00.488Z,7.10
2017-04-27T07:10:26.906Z,7.10
2017-04-27T07:12:53.202Z,7.10
2017-04-27T07:15:19.524Z,7.10
2017-04-27T07:17:45.837Z,7.30
2017-04-27T07:20:12.731Z,7.60
2017-04-27T07:22:39.613Z,7.60
2017-04-27T07:25:06.581Z,8.00
2017-04-27T07:27:32.758Z,8.00
2017-04-27T07:29:58.922Z,8.20
2017-04-27T07:32:26.810Z,8.70
2017-04-27T07:34:52.945Z,8.60
2017-04-27T07:37:19.210Z,8.80
2017-04-27T07:39:45.477Z,8.80
2017-04-27T07:42:13.387Z,8.60
2017-04-27T09:52:48.604Z,19.60
2017-04-27T11:32:40.716Z,20.67
2017-04-27T11:32:40.716Z,19.20
2017-04-27T11:35:10.887Z,21.05
2017-04-27T11:35:10.887Z,19.60
2017-04-27T11:37:40.242Z,21.19
2017-04-27T11:37:40.242Z,19.60
2017-04-27T11:40:11.185Z,21.56
2017-04-27T11:40:11.185Z,20.20
2017-04-27T11:42:40.681Z,21.41
2017-04-27T11:42:40.681Z,20.10
2017-04-27T11:45:10.038Z,21.50
2017-04-27T11:45:10.038Z,20.20
2017-04-27T11:47:39.416Z,21.14
2017-04-27T11:47:39.416Z,20.30
2017-04-27T11:50:10.159Z,20.99
2017-04-27T11:50:10.159Z,20.40
2017-04-27T11:52:39.532Z,20.95
2017-04-27T11:52:39.532Z,20.40
2017-04-27T11:55:09.620Z,20.90
2017-04-27T11:55:09.620Z,20.50
2017-04-27T11:57:39.022Z,20.92
2017-04-27T11:57:39.022Z,20.50
2017-04-27T12:00:08.398Z,20.92
2017-04-27T12:00:08.398Z,20.50
2017-04-27T12:02:37.751Z,20.89
2017-04-27T12:02:37.751Z,20.50
2017-04-27T12:05:07.870Z,20.88
2017-04-27T12:05:07.870Z,20.50
2017-04-27T12:07:37.230Z,20.85
2017-04-27T12:07:37.230Z,20.50
2017-04-27T12:10:06.654Z,20.83
2017-04-27T12:10:06.654Z,20.50
2017-04-27T12:12:36.088Z,20.77
2017-04-27T12:12:36.088Z,20.50
2017-04-27T12:15:05.482Z,20.88
2017-04-27T12:15:05.482Z,20.50
2017-04-27T12:17:34.811Z,14.68
2017-04-27T12:17:34.811Z,20.50
2017-04-27T12:20:03.443Z,17.70
2017-04-27T12:22:31.831Z,15.90
2017-04-27T12:25:00.223Z,15.10
2017-04-27T12:27:28.702Z,14.80
2017-04-27T12:29:57.096Z,14.70
2017-04-27T12:32:25.483Z,14.50
2017-04-27T12:34:53.967Z,14.30
2017-04-27T12:37:23.382Z,13.90
2017-04-27T12:39:51.835Z,13.70
2017-04-27T12:42:20.298Z,13.50
2017-04-27T12:44:49.585Z,13.50
2017-04-27T12:47:17.971Z,13.50
2017-04-27T12:49:46.367Z,13.50
2017-04-27T12:52:14.822Z,13.40
2017-04-27T12:54:43.216Z,13.10
2017-04-27T12:57:11.598Z,13.00
2017-04-27T12:59:40.846Z,13.00
2017-04-27T13:02:09.244Z,12.60
2017-04-27T13:04:38.399Z,12.10
2017-04-27T13:07:06.784Z,12.00
2017-04-27T13:09:35.197Z,12.00
2017-04-27T13:12:04.870Z,12.20
2017-04-27T13:14:33.309Z,12.10
2017-04-27T13:17:01.714Z,12.00
2017-04-27T13:19:30.656Z,11.70
2017-04-27T13:21:59.565Z,12.00
2017-04-27T13:24:28.448Z,12.10
2017-04-27T13:26:56.975Z,12.00
2017-04-27T13:29:25.364Z,12.10
2017-04-27T13:31:53.740Z,12.20
2017-04-27T13:34:22.195Z,12.10
2017-04-27T13:36:50.599Z,12.30
2017-04-27T13:39:19.010Z,12.70
2017-04-27T13:41:47.643Z,13.40
2017-04-27T13:44:16.025Z,13.50
2017-04-27T13:46:44.421Z,13.40
2017-04-27T13:49:12.918Z,13.40
2017-04-27T13:51:41.324Z,13.30
2017-04-27T13:54:10.491Z,12.70
2017-04-27T13:56:38.993Z,12.70
2017-04-27T13:59:07.387Z,12.80
2017-04-27T14:01:35.813Z,13.00
2017-04-27T14:04:04.589Z,13.10
2017-04-27T14:06:33.039Z,13.00
2017-04-27T14:09:03.128Z,12.30
2017-04-27T14:11:31.599Z,12.30
2017-04-27T14:14:00.930Z,12.40
2017-04-27T14:16:30.096Z,12.70
2017-04-27T14:18:58.582Z,13.10
2017-04-27T14:21:28.011Z,13.10
2017-04-27T14:23:56.408Z,13.10
2017-04-27T14:26:26.534Z,12.60
2017-04-27T14:28:55.020Z,12.60
2017-04-27T14:31:24.166Z,12.20
2017-04-27T14:33:53.091Z,12.10
2017-04-27T14:36:22.325Z,12.10
2017-04-27T14:38:50.711Z,12.00
2017-04-27T14:41:19.104Z,12.20
2017-04-27T14:43:49.223Z,11.70
2017-04-27T14:46:18.354Z,11.90
2017-04-27T14:48:46.827Z,11.90
2017-04-27T14:51:15.221Z,11.80
2017-04-27T14:53:43.623Z,11.80
2017-04-27T14:56:12.870Z,12.00
2017-04-27T14:58:41.480Z,12.00
2017-04-27T15:01:10.007Z,12.00
2017-04-27T15:03:38.397Z,12.10
2017-04-27T15:06:06.786Z,12.50
2017-04-27T15:08:35.256Z,12.50
2017-04-27T15:11:03.744Z,12.40
2017-04-27T15:13:32.145Z,12.50
2017-04-27T15:16:00.606Z,12.20
2017-04-27T15:18:29.015Z,12.30
2017-04-27T15:20:57.600Z,12.40
2017-04-27T15:23:26.060Z,12.10
2017-04-27T15:25:54.514Z,11.90
2017-04-27T15:28:22.991Z,12.00
2017-04-27T15:30:51.435Z,12.10
2017-04-27T15:33:19.819Z,12.20
2017-04-27T15:35:48.273Z,12.20
2017-04-27T15:38:17.535Z,12.10
2017-04-27T15:40:46.735Z,12.00
2017-04-27T15:43:15.143Z,11.90
2017-04-27T15:45:43.609Z,11.70
2017-04-27T15:48:12.001Z,11.60
2017-04-27T15:50:40.391Z,11.80
2017-04-27T15:53:10.003Z,12.00
2017-04-27T15:55:38.473Z,12.40
2017-04-27T15:58:06.875Z,12.50
2017-04-27T16:00:35.262Z,12.20
2017-04-27T16:03:03.743Z,12.40
2017-04-27T16:05:32.132Z,12.50
2017-04-27T16:08:00.529Z,12.60
2017-04-27T16:10:29.749Z,12.40
2017-04-27T16:12:58.897Z,12.30
2017-04-27T16:15:27.962Z,12.40
2017-04-27T16:17:56.453Z,12.20
2017-04-27T16:20:24.891Z,11.80
2017-04-27T16:22:54.041Z,12.30
2017-04-27T16:25:22.539Z,12.30
2017-04-27T16:27:51.615Z,11.90
2017-04-27T16:30:20.007Z,11.60
2017-04-27T16:32:48.494Z,11.80
2017-04-27T16:35:16.900Z,11.60
2017-04-27T16:37:46.064Z,12.10
2017-04-27T16:40:14.540Z,12.10
2017-04-27T16:42:42.928Z,11.90
2017-04-27T16:45:11.402Z,11.80
2017-04-27T16:47:39.866Z,11.70
2017-04-27T16:50:08.371Z,11.80
2017-04-27T16:52:36.848Z,11.40
2017-04-27T16:55:05.228Z,11.20
2017-04-27T16:57:33.627Z,11.30
2017-04-27T17:00:03.185Z,11.20
2017-04-27T17:02:31.576Z,11.30
2017-04-27T17:05:00.048Z,11.30
2017-04-27T17:10:28.112Z,11.40
2017-04-27T17:12:57.423Z,11.50
2017-04-27T17:15:25.911Z,11.40
2017-04-27T17:17:55.115Z,11.20
2017-04-27T17:20:23.602Z,11.20
2017-04-27T17:22:52.005Z,11.10
2017-04-27T17:25:20.425Z,11.10
2017-04-27T17:27:49.387Z,11.20
2017-04-27T17:30:18.826Z,11.30
2017-04-27T17:32:47.661Z,11.30
2017-04-27T17:35:16.364Z,11.30
2017-04-27T17:37:44.998Z,11.20
2017-04-27T17:40:14.331Z,10.90
2017-04-27T17:42:43.018Z,10.90
2017-04-27T17:45:11.510Z,10.60
2017-04-27T17:47:40.220Z,10.60
2017-04-27T17:50:09.764Z,10.30
2017-04-27T17:52:38.263Z,10.30
2017-04-27T17:55:06.801Z,10.30
2017-04-27T17:57:35.311Z,10.30
2017-04-27T18:00:04.654Z,10.40
2017-04-27T18:02:33.273Z,10.30
2017-04-27T18:05:02.569Z,10.20
2017-04-27T18:07:32.509Z,10.20
2017-04-27T18:10:01.738Z,10.10
2017-04-27T18:12:30.129Z,10.00
2017-04-27T18:14:59.397Z,9.80
2017-04-27T18:17:28.611Z,9.80
2017-04-27T18:19:57.558Z,9.80
2017-04-27T18:22:26.022Z,9.70
2017-04-27T18:24:54.401Z,9.80
2017-04-27T18:27:22.868Z,9.70
2017-04-27T18:29:52.211Z,9.70
2017-04-27T18:32:20.808Z,9.50
2017-04-27T18:34:49.232Z,9.50
2017-04-27T18:37:17.631Z,9.50
2017-04-27T18:39:46.009Z,9.40
2017-04-27T18:42:14.494Z,9.20
2017-04-27T18:44:43.705Z,9.20
2017-04-27T18:47:12.102Z,9.00
2017-04-27T18:49:41.319Z,9.00
2017-04-27T18:52:09.711Z,8.90
2017-04-27T18:54:38.176Z,9.00
2017-04-27T18:57:07.221Z,9.00
2017-04-27T18:59:37.229Z,9.20
2017-04-27T19:02:07.168Z,9.30
2017-04-27T19:04:35.609Z,9.30
2017-04-27T19:07:03.995Z,9.20
2017-04-27T19:09:32.491Z,9.30
2017-04-27T19:12:00.899Z,9.30
2017-04-27T19:14:30.054Z,9.50
2017-04-27T19:16:58.528Z,9.50
2017-04-27T19:19:28.335Z,9.50
2017-04-27T19:21:56.726Z,9.50
2017-04-27T19:24:25.243Z,9.40
2017-04-27T19:26:53.637Z,9.30
2017-04-27T19:29:22.798Z,9.20
2017-04-27T19:31:51.278Z,9.10
2017-04-27T19:34:19.682Z,9.10
2017-04-27T19:36:48.919Z,9.30
2017-04-27T19:39:17.435Z,9.30
2017-04-27T19:41:45.833Z,9.40
2017-04-27T19:44:14.471Z,9.40
2017-04-27T19:46:42.963Z,9.50
2017-04-27T19:49:11.346Z,9.40
2017-04-27T19:52:52.385Z,9.30
2017-04-27T19:55:21.781Z,9.40
2017-04-27T19:57:50.187Z,9.40
2017-04-27T20:00:19.580Z,9.30
2017-04-27T20:02:48.756Z,9.50
2017-04-27T20:05:17.141Z,9.50
2017-04-27T20:07:46.407Z,9.50
2017-04-27T20:10:14.869Z,9.40
2017-04-27T20:12:43.259Z,9.20
2017-04-27T20:15:11.640Z,9.30
2017-04-27T20:17:40.106Z,9.10
2017-04-27T20:20:09.289Z,9.20
2017-04-27T20:22:37.667Z,9.20
2017-04-27T20:25:06.046Z,9.10
2017-04-27T20:27:34.540Z,9.00
2017-04-27T20:30:05.923Z,9.10
2017-04-27T20:32:34.863Z,9.00
2017-04-27T20:35:03.251Z,9.10
2017-04-27T20:37:31.652Z,9.00
2017-04-27T20:40:01.034Z,8.90
2017-04-27T20:42:29.909Z,8.80
2017-04-27T20:44:59.105Z,8.80
2017-04-27T20:47:27.503Z,8.70
2017-04-27T20:49:55.944Z,8.80
2017-04-27T20:52:24.361Z,8.70
2017-04-27T20:54:52.747Z,8.80
2017-04-27T20:57:21.733Z,8.80
2017-04-27T20:59:50.120Z,8.70
2017-04-27T21:02:18.553Z,8.50
2017-04-27T21:04:47.062Z,8.50
2017-04-27T21:07:15.454Z,8.70
2017-04-27T21:09:43.934Z,8.70
2017-04-27T21:12:13.297Z,8.60
2017-04-27T21:14:41.682Z,8.60
2017-04-27T21:17:11.698Z,8.60
2017-04-27T21:19:40.074Z,8.60
2017-04-27T21:22:09.239Z,8.50
2017-04-27T21:24:37.706Z,8.40
2017-04-27T21:27:06.727Z,8.50
2017-04-27T21:29:36.002Z,8.40
2017-04-27T21:32:04.465Z,8.10
2017-04-27T21:34:32.853Z,8.20
2017-04-27T21:37:01.247Z,8.20
2017-04-27T21:39:29.786Z,8.10
2017-04-27T21:41:59.654Z,7.90
2017-04-27T21:44:28.124Z,7.80
2017-04-27T21:46:57.710Z,7.90
2017-04-27T21:49:26.968Z,7.90
2017-04-27T21:52:32.836Z,7.90
2017-04-27T21:55:01.218Z,7.90
2017-04-27T21:57:30.381Z,7.70
2017-04-27T21:59:59.626Z,7.70
2017-04-27T22:02:28.785Z,7.80
2017-04-27T22:04:57.177Z,7.80
2017-04-27T22:07:25.643Z,7.70
2017-04-27T22:09:54.963Z,7.60
2017-04-27T22:12:23.357Z,7.50
2017-04-27T22:14:52.583Z,7.40
2017-04-27T22:17:21.848Z,7.40
2017-04-27T22:19:51.003Z,7.30
2017-04-27T22:22:19.383Z,7.30
2017-04-27T22:24:48.081Z,7.20
2017-04-27T22:27:16.700Z,7.30
2017-04-27T22:29:45.160Z,7.30
2017-04-27T22:32:13.628Z,7.10
2017-04-27T22:34:42.132Z,7.10
2017-04-27T22:37:11.866Z,7.10
2017-04-27T22:39:40.375Z,7.10
2017-04-27T22:42:08.768Z,7.10
2017-04-27T22:44:37.238Z,7.00
2017-04-27T22:47:06.609Z,7.00
2017-04-27T22:49:35.793Z,7.10
2017-04-27T22:52:05.195Z,7.00
2017-04-27T22:54:34.347Z,7.10
2017-04-27T22:57:02.754Z,7.10
2017-04-27T22:59:31.222Z,7.00
2017-04-27T23:01:59.624Z,7.00
2017-04-27T23:04:28.200Z,6.70
2017-04-27T23:06:56.610Z,6.60
2017-04-27T23:09:26.727Z,6.70
2017-04-27T23:11:55.883Z,6.80
2017-04-27T23:14:24.297Z,6.70
2017-04-27T23:16:53.529Z,6.90
2017-04-27T23:19:21.933Z,6.90
2017-04-27T23:21:50.872Z,6.90
2017-04-27T23:24:20.124Z,7.00
2017-04-27T23:26:48.517Z,7.00
2017-04-27T23:29:16.925Z,7.00
2017-04-27T23:31:45.402Z,7.00
2017-04-27T23:34:14.549Z,7.10
2017-04-27T23:36:43.586Z,7.00
2017-04-27T23:39:12.060Z,7.10
2017-04-27T23:41:40.447Z,7.20
2017-04-27T23:44:11.323Z,7.30
2017-04-27T23:46:40.538Z,7.30
2017-04-27T23:49:08.926Z,7.40
2017-04-27T23:51:38.031Z,7.50
2017-04-27T23:54:06.835Z,7.70
2017-04-27T23:56:36.177Z,7.60
2017-04-27T23:59:04.622Z,7.70
